Station: Tasman Island  

  Atmospheric Gas Attenuation - ITU Rec 676-11   ----------------- dB/100km -----------------
Date Time Temp RH % AH g/m3 Dew Point Wind Direction Speed kph Gust kph Barometer mB Rainfall Since 9am 24GHz 47GHz 76GHz 122GHz 134GHz 241GHz
31/08 11:50 13.1 63 7.19 6.2 6 15 1025.3 0 16.6 24.3 35.1 91.7 81.8 280.2
31/08 11:40 12.8 64 7.17 6.2 0 0 1025.5 0 16.6 24.4 35.1 91.8 81.9 280.4
31/08 11:30 12.2 64 6.91 5.6 7 22 1025.5 0 16.0 24.1 34.4 89.8 79.2 270.8
31/08 11:20 12.4 63 6.88 5.6 0 11 1025.4 0 16.0 24.0 34.2 89.3 78.6 268.8
31/08 11:10 12.2 67 7.23 6.3 0 13 1025.3 0 16.7 24.6 35.6 93.1 83.3 285.2
31/08 11:00 11.2 66 6.69 5.1 6 24 1025.1 0 15.6 24.0 34.0 88.6 77.3 264.2
31/08 10:50 11.1 68 6.85 5.4 11 26 1025.1 0 16.0 24.3 34.6 90.4 79.5 271.8
31/08 10:40 11 68 6.81 5.3 11 28 1025.1 0 15.9 24.3 34.5 90.1 79.1 270.3
31/08 10:30 11 67 6.71 5.1 15 30 1025.2 0 15.7 24.1 34.1 89.1 77.8 265.8
31/08 10:20 11.1 68 6.85 5.4 15 33 1025.4 0 16.0 24.3 34.6 90.4 79.5 271.8
31/08 10:10 10.8 68 6.72 5.1 17 28 1025.5 0 15.7 24.2 34.3 89.4 78.1 267.0
31/08 10:00 10.7 69 6.78 5.3 15 28 1025.6 0 15.8 24.3 34.5 90.2 79.0 270.1
31/08 09:50 10.6 69 6.74 5.2 15 26 1025.7 0 15.8 24.3 34.4 89.9 78.6 268.6
31/08 09:40 10.6 71 6.93 5.6 15 30 1025.8 0 16.2 24.6 35.2 91.9 81.1 277.3
31/08 09:30 10.5 71 6.89 5.5 15 28 1025.7 0 16.1 24.5 35.1 91.6 80.7 275.8
31/08 09:20 10.3 70 6.71 5.1 13 26 1025.8 0 15.7 24.3 34.4 89.9 78.5 268.3
31/08 09:10 10.2 70 6.66 5 11 26 1025.9 0 15.6 24.3 34.3 89.5 78.0 266.4
31/08 09:00 10.2 69 6.57 4.8 9 24 1026 0 15.4 24.1 33.9 88.6 76.8 262.3
31/08 08:50 10.2 71 6.76 5.2 9 24 1026.1 0 15.8 24.4 34.7 90.6 79.3 271.0
31/08 08:40 10.2 71 6.76 5.2 9 22 1026.1 0 15.8 24.4 34.7 90.6 79.3 271.0
31/08 08:30 10.1 72 6.81 5.3 6 24 1026.1 0 15.9 24.5 34.9 91.2 80.1 273.6
31/08 08:20 10 72 6.77 5.2 6 28 1026.1 0 15.8 24.5 34.8 90.9 79.6 272.1
31/08 08:10 10.1 73 6.9 5.5 6 22 1026 0 16.1 24.7 35.3 92.2 81.2 277.7
31/08 08:00 10.1 73 6.9 5.5 2 17 1025.9 0 16.1 24.7 35.3 92.2 81.2 277.7
31/08 07:50 10 73 6.86 5.4 6 24 1025.8 0 16.0 24.6 35.2 91.9 80.8 276.2
31/08 07:40 9.9 73 6.82 5.3 0 17 1025.7 0 16.0 24.6 35.1 91.5 80.4 274.7
31/08 07:30 9.9 74 6.91 5.5 2 20 1025.8 0 16.1 24.7 35.4 92.5 81.6 278.8
31/08 07:20 9.8 74 6.87 5.4 4 22 1025.7 0 16.1 24.7 35.3 92.2 81.1 277.3
31/08 07:10 9.9 74 6.91 5.5 4 26 1025.5 0 16.1 24.7 35.4 92.5 81.5 278.8
31/08 07:00 9.7 74 6.82 5.3 6 26 1025.3 0 16.0 24.6 35.1 91.7 80.6 275.3
31/08 06:50 9.6 73 6.69 5 4 22 1025.3 0 15.7 24.4 34.6 90.5 78.9 269.6
31/08 06:40 9.6 74 6.78 5.2 4 24 1025.3 0 15.9 24.6 35.0 91.4 80.1 273.8
31/08 06:30 9.6 73 6.69 5 7 24 1025.3 0 15.7 24.4 34.6 90.5 78.9 269.6
31/08 06:20 9.5 73 6.65 4.9 7 24 1025.2 0 15.6 24.4 34.5 90.1 78.5 268.1
31/08 06:10 9.5 74 6.74 5.1 7 24 1025.1 0 15.8 24.5 34.9 91.1 79.7 272.2
31/08 06:00 9.6 72 6.6 4.8 11 26 1025.2 0 15.5 24.3 34.3 89.5 77.8 265.5
31/08 05:50 9.5 71 6.46 4.5 11 26 1025.1 0 15.2 24.1 33.8 88.1 76.0 259.4
31/08 05:40 9.5 71 6.46 4.5 6 19 1025.1 0 15.2 24.1 33.8 88.1 76.0 259.4
31/08 05:30 9.5 72 6.56 4.7 4 22 1025.1 0 15.4 24.3 34.2 89.2 77.3 264.0
31/08 05:20 9.5 72 6.56 4.7 4 24 1024.9 0 15.4 24.3 34.2 89.2 77.3 263.9
31/08 05:10 9.7 70 6.46 4.5 7 24 1024.8 0 15.2 24.0 33.7 87.9 75.8 258.7
31/08 05:00 9.6 70 6.41 4.4 4 22 1024.6 0 15.1 24.0 33.5 87.4 75.2 256.7
31/08 04:50 9.7 69 6.36 4.3 6 24 1024.6 0 15.0 23.9 33.3 86.8 74.5 254.1
31/08 04:40 9.7 69 6.36 4.3 7 28 1024.6 0 15.0 23.9 33.3 86.8 74.5 254.1
31/08 04:30 9.7 70 6.46 4.5 7 26 1024.6 0 15.2 24.0 33.7 87.9 75.8 258.6
31/08 04:20 9.8 70 6.5 4.6 9 28 1024.5 0 15.3 24.1 33.8 88.2 76.2 260.1
31/08 04:10 9.8 69 6.4 4.4 9 28 1024.5 0 15.1 23.9 33.4 87.1 74.9 255.5
31/08 04:00 9.7 70 6.46 4.5 4 24 1024.5 0 15.2 24.0 33.7 87.8 75.8 258.6
31/08 03:50 9.8 69 6.4 4.4 11 32 1024.4 0 15.1 23.9 33.4 87.1 74.9 255.5
31/08 03:40 9.8 69 6.4 4.4 4 32 1024.3 0 15.1 23.9 33.4 87.1 74.9 255.5
31/08 03:30 9.7 70 6.46 4.5 11 30 1024.4 0 15.2 24.0 33.7 87.8 75.8 258.6
31/08 03:20 9.9 68 6.35 4.3 7 26 1024.4 0 14.9 23.8 33.1 86.5 74.2 252.9
31/08 03:10 9.8 67 6.22 4.1 6 17 1024.3 0 14.7 23.6 32.7 85.2 72.6 247.4
31/08 03:00 9.8 69 6.4 4.4 7 20 1024.4 0 15.1 23.9 33.4 87.1 74.9 255.5
31/08 02:50 9.8 69 6.4 4.4 11 22 1024.4 0 15.1 23.9 33.4 87.1 74.9 255.5
31/08 02:40 9.7 72 6.64 4.9 11 26 1024.4 0 15.6 24.3 34.4 89.7 78.1 266.8
31/08 02:30 9.7 72 6.64 4.9 6 26 1024.4 0 15.6 24.3 34.4 89.7 78.1 266.8
31/08 02:20 9.7 72 6.64 4.9 7 26 1024.5 0 15.6 24.3 34.4 89.7 78.1 266.8
31/08 02:10 9.7 71 6.55 4.7 2 19 1024.6 0 15.4 24.2 34.0 88.8 77.0 262.7
31/08 02:00 9.8 71 6.59 4.8 6 26 1024.7 0 15.5 24.2 34.1 89.1 77.4 264.2
31/08 01:50 9.8 71 6.59 4.8 2 7 1024.6 0 15.5 24.2 34.1 89.1 77.4 264.2
31/08 01:40 9.9 69 6.44 4.5 9 24 1024.6 0 15.1 23.9 33.5 87.4 75.3 257.1
31/08 01:30 10 71 6.67 5 6 24 1024.5 0 15.6 24.3 34.4 89.7 78.2 267.2
31/08 01:20 10 71 6.67 5 6 22 1024.6 0 15.6 24.3 34.4 89.7 78.2 267.2
31/08 01:10 10.1 70 6.62 4.9 6 22 1024.5 0 15.5 24.2 34.1 89.1 77.5 264.6
31/08 01:00 10.2 70 6.66 5 9 30 1024.7 0 15.6 24.2 34.2 89.4 77.9 266.1
31/08 00:50 10.3 69 6.61 4.9 7 26 1024.7 0 15.5 24.1 34.0 88.8 77.2 263.5
31/08 00:40 10.3 69 6.61 4.9 6 24 1024.6 0 15.5 24.1 34.0 88.8 77.2 263.5
31/08 00:30 10.3 69 6.61 4.9 6 24 1024.6 0 15.5 24.1 34.0 88.8 77.2 263.5
31/08 00:20 10.3 68 6.51 4.7 4 22 1024.6 0 15.3 23.9 33.6 87.7 75.9 258.9
31/08 00:10 10.3 70 6.71 5.1 2 24 1024.6 0 15.7 24.3 34.4 89.8 78.5 268.0
31/08 00:00 10.4 68 6.56 4.8 4 20 1024.4 0 15.4 24.0 33.8 88.1 76.4 260.8
30/08 23:50 10.4 70 6.75 5.2 6 22 1024.4 0 15.8 24.3 34.5 90.1 78.9 269.4
30/08 23:40 10.5 69 6.69 5.1 6 22 1024.4 0 15.6 24.2 34.2 89.4 78.0 266.4
30/08 23:30 10.6 69 6.74 5.2 4 24 1024.4 0 15.8 24.2 34.4 89.8 78.5 268.3
30/08 23:20 10.5 70 6.79 5.3 4 20 1024.4 0 15.9 24.3 34.6 90.4 79.3 270.9
30/08 23:10 10.4 71 6.84 5.4 4 22 1024.3 0 16.0 24.4 34.9 91.0 80.0 273.5
30/08 23:00 10.5 71 6.89 5.5 6 24 1024.3 0 16.1 24.5 35.0 91.4 80.6 275.5
30/08 22:50 10.3 71 6.8 5.3 4 20 1024.3 0 15.9 24.4 34.7 90.7 79.6 272.0
30/08 22:40 10.4 70 6.75 5.2 6 20 1024.3 0 15.8 24.3 34.5 90.1 78.9 269.4
30/08 22:30 10.6 68 6.64 4.9 13 37 1024.4 0 15.5 24.1 34.0 88.7 77.2 263.8
30/08 22:20 10.4 69 6.65 5 13 30 1024.3 0 15.6 24.1 34.1 89.0 77.6 264.9
30/08 22:10 10.7 68 6.68 5 11 33 1024.3 0 15.6 24.1 34.1 89.0 77.6 265.2
30/08 22:00 10.5 71 6.89 5.5 11 26 1024.4 0 16.1 24.5 35.0 91.5 80.6 275.5
30/08 21:50 10.5 69 6.69 5.1 4 20 1024.3 0 15.6 24.2 34.2 89.3 78.0 266.4
30/08 21:40 10.5 68 6.6 4.9 9 24 1024.3 0 15.5 24.0 33.9 88.4 76.8 262.3
30/08 21:30 10.6 68 6.64 4.9 9 24 1024.2 0 15.5 24.1 34.0 88.7 77.2 263.7
30/08 21:20 10.7 67 6.58 4.8 9 33 1024.5 0 15.4 23.9 33.7 88.0 76.4 260.8
30/08 21:10 10.5 68 6.6 4.9 7 30 1024.4 0 15.5 24.0 33.9 88.4 76.8 262.3
30/08 21:00 10.8 68 6.72 5.1 7 26 1024.2 0 15.7 24.1 34.2 89.3 78.1 266.7
30/08 20:50 10.7 69 6.78 5.3 6 24 1024.3 0 15.8 24.3 34.5 90.1 78.9 269.8
30/08 20:40 10.7 69 6.78 5.3 6 28 1024.2 0 15.8 24.3 34.5 90.1 78.9 269.7
30/08 20:30 10.7 74 7.27 6.3 9 26 1024.1 0 16.9 25.0 36.4 95.2 85.3 292.2
30/08 20:20 10.8 73 7.22 6.2 6 24 1024.1 0 16.8 24.9 36.2 94.6 84.6 289.5
30/08 20:10 10.9 72 7.16 6.1 6 28 1024.1 0 16.6 24.8 35.9 93.8 83.7 286.4
30/08 20:00 11.1 72 7.25 6.3 11 28 1024.1 0 16.8 24.9 36.2 94.5 84.6 289.8
30/08 19:50 11.2 75 7.6 6.9 9 32 1024.1 0 17.6 25.4 37.5 98.2 89.1 305.6
30/08 19:40 11.1 74 7.46 6.6 13 32 1023.8 0 17.3 25.2 37.0 96.8 87.4 299.4
30/08 19:30 11.2 77 7.81 7.3 13 28 1023.9 0 18.0 25.8 38.4 100.4 91.9 315.4
30/08 19:20 11.3 75 7.65 7 19 33 1024.1 0 17.7 25.5 37.7 98.6 89.7 307.5

Last Refresh: 31-Aug-2026 11:38:26

Bureau of Meteorology